| time (UTC) | temp F | wind direction | speed MPH | gust MPH | rain 1hr in | rain 24hr in | rain mn in | humidity % | barometer mb |
| 20260507001207 | 76 | 284 | 5.0 | 9.0 | 0.00 | 0.00 | 0.00 | 51 | 1017.1 |
| 20260507000703 | 75 | 282 | 7.0 | 13.0 | 0.00 | 0.00 | 0.00 | 52 | 1017.1 |
| 20260507000159 | 76 | 227 | 4.0 | 7.0 | 0.00 | 0.00 | 0.00 | 50 | 1017.1 |
| 20260506235656 | 75 | 278 | 10.0 | 14.0 | 0.00 | 0.00 | 0.00 | 51 | 1017.2 |
| 20260506235151 | 77 | 287 | 4.0 | 8.0 | 0.00 | 0.00 | 0.00 | 49 | 1017.1 |
| 20260506234648 | 76 | 283 | 6.0 | 11.0 | 0.00 | 0.00 | 0.00 | 50 | 1017.0 |
| 20260506234145 | 76 | 287 | 4.0 | 10.0 | 0.00 | 0.00 | 0.00 | 49 | 1017.1 |
| 20260506233642 | 75 | 264 | 7.0 | 17.0 | 0.00 | 0.00 | 0.00 | 51 | 1017.3 |
| 20260506233139 | 77 | 270 | 9.0 | 15.0 | 0.00 | 0.00 | 0.00 | 48 | 1017.2 |
| 20260506232635 | 76 | 264 | 6.0 | 13.0 | 0.00 | 0.00 | 0.00 | 50 | 1017.1 |
| 20260506232131 | 76 | 280 | 3.0 | 10.0 | 0.00 | 0.00 | 0.00 | 50 | 1017.1 |
| 20260506231628 | 76 | 280 | 7.0 | 10.0 | 0.00 | 0.00 | 0.00 | 50 | 1017.2 |
| 20260506231127 | 76 | 253 | 6.0 | 11.0 | 0.00 | 0.00 | 0.00 | 49 | 1017.4 |
| 20260506230624 | 76 | 310 | 5.0 | 11.0 | 0.00 | 0.00 | 0.00 | 49 | 1017.2 |
| 20260506230121 | 76 | 284 | 7.0 | 8.0 | 0.00 | 0.00 | 0.00 | 49 | 1017.4 |
| 20260506225617 | 77 | 282 | 5.0 | 12.0 | 0.00 | 0.00 | 0.00 | 49 | 1017.2 |
| 20260506225113 | 77 | 269 | 9.0 | 15.0 | 0.00 | 0.00 | 0.00 | 49 | 1017.3 |
| 20260506224610 | 77 | 320 | 3.0 | 13.0 | 0.00 | 0.00 | 0.00 | 49 | 1017.4 |
| 20260506224107 | 76 | 260 | 10.0 | 13.0 | 0.00 | 0.00 | 0.00 | 49 | 1017.3 |
| 20260506223603 | 76 | 269 | 7.0 | 12.0 | 0.00 | 0.00 | 0.00 | 50 | 1017.4 |
| 20260506223059 | 76 | 293 | 6.0 | 12.0 | 0.00 | 0.00 | 0.00 | 49 | 1017.6 |
| 20260506222556 | 78 | 253 | 5.0 | 13.0 | 0.00 | 0.00 | 0.00 | 48 | 1017.4 |
| 20260506222052 | 77 | 257 | 4.0 | 12.0 | 0.00 | 0.00 | 0.00 | 48 | 1017.6 |
| 20260506221550 | 77 | 269 | 7.0 | 16.0 | 0.00 | 0.00 | 0.00 | 48 | 1017.6 |
| 20260506221048 | 77 | 240 | 5.0 | 16.0 | 0.00 | 0.00 | 0.00 | 48 | 1017.8 |
| 20260506220543 | 77 | 179 | 3.0 | 16.0 | 0.00 | 0.00 | 0.00 | 47 | 1017.8 |
| 20260506220039 | 77 | 240 | 5.0 | 14.0 | 0.00 | 0.00 | 0.00 | 47 | 1018.0 |
| 20260506215536 | 77 | 278 | 7.0 | 10.0 | 0.00 | 0.00 | 0.00 | 47 | 1017.9 |
| 20260506215032 | 77 | 304 | 9.0 | 11.0 | 0.00 | 0.00 | 0.00 | 45 | 1018.0 |
| 20260506214529 | 78 | 327 | 3.0 | 7.0 | 0.00 | 0.00 | 0.00 | 44 | 1018.2 |
| 20260506214026 | 79 | 169 | 3.0 | 6.0 | 0.00 | 0.00 | 0.00 | 44 | 1018.0 |
| 20260506213524 | 79 | 214 | 3.0 | 6.0 | 0.00 | 0.00 | 0.00 | 43 | 1018.0 |
| 20260506213021 | 78 | 212 | 2.0 | 7.0 | 0.00 | 0.00 | 0.00 | 47 | 1018.5 |
| 20260506212518 | 79 | 267 | 2.0 | 6.0 | 0.00 | 0.00 | 0.00 | 44 | 1018.2 |
| 20260506212013 | 78 | 130 | 6.0 | 7.0 | 0.00 | 0.00 | 0.00 | 44 | 1018.2 |
| 20260506211509 | 78 | 151 | 5.0 | 9.0 | 0.00 | 0.00 | 0.00 | 44 | 1018.3 |
| 20260506211007 | 77 | 85 | 5.0 | 10.0 | 0.00 | 0.00 | 0.00 | 43 | 1018.4 |
| 20260506210503 | 77 | 317 | 2.0 | 4.0 | 0.00 | 0.00 | 0.00 | 43 | 1018.3 |
| 20260506210000 | 78 | 176 | 6.0 | 10.0 | 0.00 | 0.00 | 0.00 | 43 | 1018.6 |
| 20260506205456 | 76 | 358 | 1.0 | 5.0 | 0.00 | 0.00 | 0.00 | 43 | 1018.4 |
| 20260506204952 | 77 | 122 | 2.0 | 7.0 | 0.00 | 0.00 | 0.00 | 44 | 1018.5 |
| 20260506204450 | 76 | 198 | 3.0 | 9.0 | 0.00 | 0.00 | 0.00 | 46 | 1018.5 |
| 20260506203947 | 75 | 211 | 2.0 | 10.0 | 0.00 | 0.00 | 0.00 | 46 | 1018.6 |
| 20260506203444 | 74 | 276 | 4.0 | 6.0 | 0.00 | 0.00 | 0.00 | 46 | 1018.7 |
| 20260506202941 | 75 | 39 | 3.0 | 5.0 | 0.00 | 0.00 | 0.00 | 45 | 1018.7 |
| 20260506202438 | 74 | 236 | 7.0 | 9.0 | 0.00 | 0.00 | 0.00 | 46 | 1018.8 |
| 20260506201934 | 75 | 160 | 3.0 | 8.0 | 0.00 | 0.00 | 0.00 | 46 | 1018.9 |
| 20260506201432 | 74 | 245 | 7.0 | 11.0 | 0.00 | 0.00 | 0.00 | 47 | 1018.9 |
| 20260506200929 | 75 | 344 | 4.0 | 8.0 | 0.00 | 0.00 | 0.00 | 45 | 1018.8 |
| 20260506200425 | 73 | 287 | 4.0 | 6.0 | 0.00 | 0.00 | 0.00 | 48 | 1018.9 |
| 20260506195921 | 73 | 77 | 2.0 | 5.0 | 0.00 | 0.00 | 0.00 | 47 | 1019.1 |
| 20260506195419 | 73 | 124 | 2.0 | 10.0 | 0.00 | 0.00 | 0.00 | 47 | 1019.2 |
| 20260506194915 | 73 | 83 | 3.0 | 7.0 | 0.00 | 0.00 | 0.00 | 48 | 1019.3 |
| 20260506194412 | 72 | 235 | 1.0 | 9.0 | 0.00 | 0.00 | 0.00 | 48 | 1019.1 |
| 20260506193909 | 73 | 181 | 0.0 | 5.0 | 0.00 | 0.00 | 0.00 | 48 | 1019.1 |
| 20260506193406 | 73 | 274 | 5.0 | 7.0 | 0.00 | 0.00 | 0.00 | 47 | 1019.2 |
| 20260506192902 | 72 | 358 | 2.0 | 5.0 | 0.00 | 0.00 | 0.00 | 48 | 1019.4 |
| 20260506192359 | 73 | 254 | 2.0 | 5.0 | 0.00 | 0.00 | 0.00 | 50 | 1019.3 |
| 20260506191856 | 72 | 172 | 5.0 | 6.0 | 0.00 | 0.00 | 0.00 | 50 | 1019.4 |
| 20260506191352 | 71 | 86 | 2.0 | 7.0 | 0.00 | 0.00 | 0.00 | 50 | 1019.7 |
| 20260506190850 | 70 | 329 | 4.0 | 7.0 | 0.00 | 0.00 | 0.00 | 53 | 1019.8 |
| 20260506190346 | 70 | 196 | 0.0 | 9.0 | 0.00 | 0.00 | 0.00 | 51 | 1019.8 |
| 20260506185843 | 72 | 144 | 3.0 | 7.0 | 0.00 | 0.00 | 0.00 | 50 | 1019.5 |
| 20260506185340 | 71 | 71 | 2.0 | 7.0 | 0.00 | 0.00 | 0.00 | 50 | 1019.7 |
| 20260506184837 | 70 | 158 | 2.0 | 5.0 | 0.00 | 0.00 | 0.00 | 51 | 1019.6 |
| 20260506184334 | 71 | 154 | 6.0 | 7.0 | 0.00 | 0.00 | 0.00 | 51 | 1020.0 |
| 20260506183832 | 69 | 207 | 3.0 | 6.0 | 0.00 | 0.00 | 0.00 | 52 | 1019.9 |
| 20260506183326 | 69 | 147 | 3.0 | 6.0 | 0.00 | 0.00 | 0.00 | 52 | 1019.7 |
| 20260506182824 | 68 | 241 | 2.0 | 6.0 | 0.00 | 0.00 | 0.00 | 54 | 1019.9 |
| 20260506182321 | 68 | 120 | 3.0 | 6.0 | 0.00 | 0.00 | 0.00 | 54 | 1019.8 |
| 20260506181819 | 67 | 184 | 2.0 | 7.0 | 0.00 | 0.00 | 0.00 | 55 | 1020.0 |
| 20260506181317 | 67 | 273 | 5.0 | 8.0 | 0.00 | 0.00 | 0.00 | 54 | 1020.2 |
| 20260506180814 | 68 | 224 | 3.0 | 7.0 | 0.00 | 0.00 | 0.00 | 54 | 1019.8 |
| 20260506180310 | 67 | 94 | 5.0 | 6.0 | 0.00 | 0.00 | 0.00 | 55 | 1020.1 |
| 20260506175806 | 68 | 23 | 1.0 | 6.0 | 0.00 | 0.00 | 0.00 | 55 | 1020.1 |
| 20260506175306 | 68 | 211 | 5.0 | 6.0 | 0.00 | 0.00 | 0.00 | 55 | 1020.1 |
| 20260506174800 | 67 | 313 | 2.0 | 5.0 | 0.00 | 0.00 | 0.00 | 56 | 1019.8 |
| 20260506174257 | 67 | 103 | 2.0 | 4.0 | 0.00 | 0.00 | 0.00 | 57 | 1020.2 |
| 20260506173755 | 66 | 33 | 6.0 | 7.0 | 0.00 | 0.00 | 0.00 | 58 | 1020.0 |
| 20260506173252 | 66 | 122 | 3.0 | 4.0 | 0.00 | 0.00 | 0.00 | 59 | 1020.0 |
| 20260506172748 | 66 | 48 | 4.0 | 5.0 | 0.00 | 0.00 | 0.00 | 58 | 1020.3 |
| 20260506172245 | 65 | 254 | 0.0 | 5.0 | 0.00 | 0.00 | 0.00 | 60 | 1020.1 |
| 20260506171743 | 65 | 186 | 3.0 | 5.0 | 0.00 | 0.00 | 0.00 | 60 | 1020.1 |
| 20260506171240 | 65 | 248 | 4.0 | 5.0 | 0.00 | 0.00 | 0.00 | 59 | 1020.4 |
| 20260506170738 | 65 | 172 | 0.0 | 5.0 | 0.00 | 0.00 | 0.00 | 61 | 1020.1 |
| 20260506170233 | 63 | 273 | 3.0 | 7.0 | 0.00 | 0.00 | 0.00 | 61 | 1020.0 |
| 20260506165732 | 63 | 266 | 6.0 | 6.0 | 0.00 | 0.00 | 0.00 | 62 | 1020.2 |
| 20260506165229 | 64 | 244 | 3.0 | 9.0 | 0.00 | 0.00 | 0.00 | 64 | 1020.2 |
| 20260506164726 | 63 | 137 | 1.0 | 4.0 | 0.00 | 0.00 | 0.00 | 66 | 1020.0 |
| 20260506164223 | 64 | 251 | 2.0 | 5.0 | 0.00 | 0.00 | 0.00 | 65 | 1020.3 |
| 20260506163720 | 63 | 93 | 4.0 | 5.0 | 0.00 | 0.00 | 0.00 | 64 | 1020.4 |
| 20260506163214 | 63 | 152 | 0.0 | 5.0 | 0.00 | 0.00 | 0.00 | 65 | 1020.1 |
| 20260506162711 | 62 | 88 | 3.0 | 4.0 | 0.00 | 0.00 | 0.00 | 68 | 1020.3 |
| 20260506162208 | 61 | 242 | 2.0 | 4.0 | 0.00 | 0.00 | 0.00 | 69 | 1020.2 |
| 20260506161706 | 61 | 254 | 3.0 | 4.0 | 0.00 | 0.00 | 0.00 | 70 | 1020.2 |
| 20260506161203 | 60 | 317 | 2.0 | 3.0 | 0.00 | 0.00 | 0.00 | 71 | 1020.1 |
| 20260506160700 | 60 | 283 | 2.0 | 5.0 | 0.00 | 0.00 | 0.00 | 72 | 1020.3 |
| 20260506160156 | 61 | 253 | 2.0 | 4.0 | 0.00 | 0.00 | 0.00 | 71 | 1020.3 |
| 20260506155655 | 59 | 309 | 2.0 | 6.0 | 0.00 | 0.00 | 0.00 | 74 | 1020.2 |
| 20260506155152 | 59 | 180 | 2.0 | 5.0 | 0.00 | 0.00 | 0.00 | 74 | 1020.2 |
| 20260506153254 | 59 | 222 | 3.0 | 5.0 | 0.00 | 0.00 | 0.00 | 74 | 1020.5 |
| 20260506152750 | 58 | 177 | 3.0 | 4.0 | 0.00 | 0.00 | 0.00 | 75 | 1020.6 |
| 20260506152248 | 58 | 36 | 3.0 | 3.0 | 0.00 | 0.00 | 0.00 | 76 | 1020.3 |
| 20260506151747 | 58 | 219 | 3.0 | 5.0 | 0.00 | 0.00 | 0.00 | 75 | 1020.4 |
| 20260506151243 | 59 | 79 | 3.0 | 5.0 | 0.00 | 0.00 | 0.00 | 74 | 1020.3 |
| 20260506150740 | 59 | 134 | 3.0 | 5.0 | 0.00 | 0.00 | 0.00 | 74 | 1020.3 |
| 20260506150237 | 59 | 104 | 0.0 | 5.0 | 0.00 | 0.00 | 0.00 | 74 | 1020.2 |
| 20260506145734 | 58 | 35 | 0.0 | 3.0 | 0.00 | 0.00 | 0.00 | 76 | 1020.1 |
| 20260506145230 | 59 | 81 | 1.0 | 4.0 | 0.00 | 0.00 | 0.00 | 74 | 1020.4 |
| 20260506144727 | 58 | 33 | 2.0 | 3.0 | 0.00 | 0.00 | 0.00 | 76 | 1020.4 |
| 20260506144225 | 57 | 84 | 3.0 | 5.0 | 0.00 | 0.00 | 0.00 | 77 | 1020.4 |
| 20260506143722 | 57 | 152 | 0.0 | 3.0 | 0.00 | 0.00 | 0.00 | 77 | 1020.4 |
| 20260506143219 | 57 | 93 | 0.0 | 3.0 | 0.00 | 0.00 | 0.00 | 78 | 1020.4 |
| 20260506142718 | 57 | 116 | 2.0 | 3.0 | 0.00 | 0.00 | 0.00 | 78 | 1020.3 |
| 20260506142216 | 57 | 73 | 1.0 | 4.0 | 0.00 | 0.00 | 0.00 | 79 | 1020.4 |
| 20260506141713 | 56 | 67 | 3.0 | 5.0 | 0.00 | 0.00 | 0.00 | 79 | 1020.1 |
| 20260506141211 | 57 | 77 | 3.0 | 4.0 | 0.00 | 0.00 | 0.00 | 79 | 1020.3 |
| 20260506140709 | 56 | 56 | 0.0 | 3.0 | 0.00 | 0.00 | 0.00 | 83 | 1020.2 |
| 20260506140206 | 54 | 41 | 1.0 | 3.0 | 0.00 | 0.00 | 0.00 | 89 | 1020.2 |
| 20260506135703 | 52 | 22 | 2.0 | 4.0 | 0.00 | 0.00 | 0.00 | 89 | 1020.0 |
| 20260506135159 | 51 | 354 | 0.0 | 3.0 | 0.00 | 0.00 | 0.00 | 92 | 1020.0 |
| 20260506134656 | 50 | 36 | 2.0 | 5.0 | 0.00 | 0.00 | 0.00 | 93 | 1020.2 |
| 20260506134152 | 50 | 16 | 3.0 | 4.0 | 0.00 | 0.00 | 0.00 | 94 | 1020.0 |
| 20260506133649 | 50 | 89 | 2.0 | 4.0 | 0.00 | 0.00 | 0.00 | 95 | 1020.0 |
| 20260506133145 | 48 | 26 | 2.0 | 4.0 | 0.00 | 0.00 | 0.00 | 95 | 1020.1 |
| 20260506132643 | 47 | 49 | 2.0 | 3.0 | 0.00 | 0.00 | 0.00 | 95 | 1019.8 |
| 20260506132139 | 48 | 74 | 2.0 | 4.0 | 0.00 | 0.00 | 0.00 | 95 | 1019.8 |
| 20260506131637 | 47 | 36 | 1.0 | 3.0 | 0.00 | 0.00 | 0.00 | 95 | 1020.1 |
| 20260506131133 | 47 | 44 | 3.0 | 4.0 | 0.00 | 0.00 | 0.00 | 94 | 1019.8 |
| 20260506130630 | 47 | 32 | 1.0 | 4.0 | 0.00 | 0.00 | 0.00 | 94 | 1019.8 |
| 20260506130128 | 47 | 28 | 3.0 | 4.0 | 0.00 | 0.00 | 0.00 | 94 | 1019.8 |
| 20260506125626 | 47 | 17 | 2.0 | 5.0 | 0.00 | 0.00 | 0.00 | 94 | 1019.5 |
| 20260506125123 | 47 | 38 | 1.0 | 3.0 | 0.00 | 0.00 | 0.00 | 94 | 1019.6 |
| 20260506124621 | 47 | 58 | 3.0 | 3.0 | 0.00 | 0.00 | 0.00 | 94 | 1019.5 |
| 20260506124118 | 48 | 64 | 0.0 | 2.0 | 0.00 | 0.00 | 0.00 | 94 | 1019.5 |
| 20260506123616 | 48 | 27 | 3.0 | 4.0 | 0.00 | 0.00 | 0.00 | 94 | 1019.5 |
| 20260506123115 | 48 | 11 | 2.0 | 4.0 | 0.00 | 0.00 | 0.00 | 93 | 1019.4 |
| 20260506122611 | 48 | 35 | 2.0 | 3.0 | 0.00 | 0.00 | 0.00 | 93 | 1019.6 |
| 20260506122109 | 48 | 83 | 1.0 | 4.0 | 0.00 | 0.00 | 0.00 | 93 | 1019.3 |
| 20260506121606 | 48 | 46 | 2.0 | 4.0 | 0.00 | 0.00 | 0.00 | 93 | 1019.3 |
| 20260506121102 | 48 | 38 | 3.0 | 4.0 | 0.00 | 0.00 | 0.00 | 93 | 1019.5 |
| 20260506120600 | 48 | 100 | 1.0 | 4.0 | 0.00 | 0.00 | 0.00 | 93 | 1019.3 |
| 20260506120057 | 49 | 23 | 2.0 | 5.0 | 0.00 | 0.00 | 0.00 | 93 | 1019.3 |
| 20260506115555 | 48 | 6 | 3.0 | 4.0 | 0.00 | 0.00 | 0.00 | 93 | 1019.2 |
| 20260506115053 | 48 | 27 | 3.0 | 3.0 | 0.00 | 0.00 | 0.00 | 92 | 1019.2 |
| 20260506114550 | 48 | 13 | 2.0 | 3.0 | 0.00 | 0.00 | 0.00 | 92 | 1019.4 |
| 20260506114049 | 49 | 55 | 2.0 | 3.0 | 0.00 | 0.00 | 0.00 | 92 | 1019.1 |
| 20260506113546 | 49 | 37 | 3.0 | 4.0 | 0.00 | 0.00 | 0.00 | 92 | 1019.3 |
| 20260506113044 | 49 | 33 | 0.0 | 3.0 | 0.00 | 0.00 | 0.00 | 92 | 1019.2 |
| 20260506112540 | 49 | 30 | 3.0 | 4.0 | 0.00 | 0.00 | 0.00 | 92 | 1019.2 |
| 20260506112037 | 49 | 39 | 3.0 | 3.0 | 0.00 | 0.00 | 0.00 | 93 | 1019.1 |
| 20260506111535 | 49 | 35 | 2.0 | 3.0 | 0.00 | 0.00 | 0.00 | 93 | 1019.0 |
| 20260506111032 | 49 | 43 | 2.0 | 4.0 | 0.00 | 0.00 | 0.00 | 93 | 1019.2 |
| 20260506110530 | 49 | 17 | 3.0 | 4.0 | 0.00 | 0.00 | 0.00 | 93 | 1019.1 |
| 20260506110027 | 50 | 15 | 3.0 | 4.0 | 0.00 | 0.00 | 0.00 | 93 | 1019.2 |
| 20260506105523 | 49 | 25 | 2.0 | 4.0 | 0.00 | 0.00 | 0.00 | 93 | 1019.1 |
| 20260506105020 | 49 | 35 | 2.0 | 3.0 | 0.00 | 0.00 | 0.00 | 93 | 1019.3 |
| 20260506104518 | 49 | 19 | 2.0 | 3.0 | 0.00 | 0.00 | 0.00 | 93 | 1019.1 |
| 20260506104016 | 49 | 40 | 0.0 | 3.0 | 0.00 | 0.00 | 0.00 | 92 | 1019.3 |
| 20260506103513 | 50 | 26 | 3.0 | 5.0 | 0.00 | 0.00 | 0.00 | 92 | 1019.3 |
| 20260506103010 | 50 | 37 | 3.0 | 4.0 | 0.00 | 0.00 | 0.00 | 92 | 1019.3 |
| 20260506102508 | 50 | 7 | 2.0 | 5.0 | 0.00 | 0.00 | 0.00 | 93 | 1019.0 |
| 20260506102005 | 49 | 61 | 3.0 | 3.0 | 0.00 | 0.00 | 0.00 | 92 | 1019.1 |
| 20260506101501 | 50 | 39 | 2.0 | 4.0 | 0.00 | 0.00 | 0.00 | 92 | 1019.2 |
| 20260506100959 | 50 | 32 | 2.0 | 3.0 | 0.00 | 0.00 | 0.00 | 92 | 1019.3 |
| 20260506100457 | 50 | 25 | 2.0 | 3.0 | 0.00 | 0.00 | 0.00 | 92 | 1019.3 |
| 20260506095955 | 50 | 21 | 3.0 | 3.0 | 0.00 | 0.00 | 0.00 | 92 | 1019.3 |
| 20260506095453 | 50 | 15 | 2.0 | 3.0 | 0.00 | 0.00 | 0.00 | 92 | 1019.5 |
| 20260506094949 | 50 | 6 | 3.0 | 4.0 | 0.00 | 0.00 | 0.00 | 92 | 1019.2 |
| 20260506094447 | 50 | 33 | 2.0 | 3.0 | 0.00 | 0.00 | 0.00 | 92 | 1019.4 |
| 20260506093944 | 50 | 41 | 2.0 | 3.0 | 0.00 | 0.00 | 0.00 | 92 | 1019.4 |
| 20260506093443 | 50 | 32 | 3.0 | 4.0 | 0.00 | 0.00 | 0.00 | 91 | 1019.4 |
| 20260506092940 | 50 | 24 | 2.0 | 3.0 | 0.00 | 0.00 | 0.00 | 91 | 1019.4 |
| 20260506092438 | 50 | 34 | 3.0 | 3.0 | 0.00 | 0.00 | 0.00 | 91 | 1019.5 |
| 20260506091934 | 50 | 35 | 3.0 | 3.0 | 0.00 | 0.00 | 0.00 | 91 | 1019.4 |
| 20260506091433 | 50 | 22 | 2.0 | 3.0 | 0.00 | 0.00 | 0.00 | 91 | 1019.7 |
| 20260506090930 | 50 | 14 | 3.0 | 4.0 | 0.00 | 0.00 | 0.00 | 91 | 1019.5 |
| 20260506090427 | 51 | 35 | 3.0 | 4.0 | 0.00 | 0.00 | 0.00 | 90 | 1019.4 |
| 20260506085923 | 51 | 37 | 2.0 | 3.0 | 0.00 | 0.00 | 0.00 | 90 | 1019.6 |
| 20260506085420 | 51 | 35 | 3.0 | 3.0 | 0.00 | 0.00 | 0.00 | 90 | 1019.7 |
| 20260506084916 | 51 | 41 | 3.0 | 4.0 | 0.00 | 0.00 | 0.00 | 90 | 1019.4 |
| 20260506084414 | 51 | 33 | 3.0 | 4.0 | 0.00 | 0.00 | 0.00 | 90 | 1019.6 |
| 20260506083910 | 51 | 46 | 2.0 | 4.0 | 0.00 | 0.00 | 0.00 | 90 | 1019.7 |
| 20260506083408 | 51 | 54 | 1.0 | 4.0 | 0.00 | 0.00 | 0.00 | 89 | 1019.6 |
| 20260506082905 | 51 | 56 | 2.0 | 4.0 | 0.00 | 0.00 | 0.00 | 89 | 1019.7 |
| 20260506082401 | 51 | 35 | 2.0 | 4.0 | 0.00 | 0.00 | 0.00 | 88 | 1019.9 |
| 20260506081857 | 51 | 45 | 3.0 | 3.0 | 0.00 | 0.00 | 0.00 | 88 | 1020.0 |
| 20260506081355 | 51 | 36 | 2.0 | 4.0 | 0.00 | 0.00 | 0.00 | 88 | 1019.7 |
| 20260506080853 | 51 | 36 | 4.0 | 4.0 | 0.00 | 0.00 | 0.00 | 87 | 1019.7 |
| 20260506080349 | 51 | 69 | 2.0 | 3.0 | 0.00 | 0.00 | 0.00 | 87 | 1019.7 |
| 20260506073333 | 51 | 38 | 3.0 | 5.0 | 0.00 | 0.00 | 0.00 | 88 | 1019.7 |
| 20260506072830 | 51 | 31 | 2.0 | 4.0 | 0.00 | 0.00 | 0.00 | 88 | 1019.8 |
| 20260506072328 | 51 | 42 | 2.0 | 4.0 | 0.00 | 0.00 | 0.00 | 88 | 1020.0 |
| 20260506071825 | 51 | 38 | 3.0 | 4.0 | 0.00 | 0.00 | 0.00 | 87 | 1020.0 |
| 20260506071323 | 51 | 46 | 2.0 | 3.0 | 0.00 | 0.00 | 0.00 | 87 | 1019.5 |
| 20260506070820 | 51 | 35 | 3.0 | 4.0 | 0.00 | 0.00 | 0.00 | 87 | 1019.5 |
| 20260506070317 | 51 | 39 | 3.0 | 4.0 | 0.00 | 0.00 | 0.00 | 86 | 1019.6 |
| 20260506062254 | 52 | 39 | 2.0 | 4.0 | 0.00 | 0.00 | 0.00 | 82 | 1019.0 |
| 20260506061750 | 53 | 43 | 2.0 | 3.0 | 0.00 | 0.00 | 0.00 | 81 | 1019.1 |
| 20260506061247 | 53 | 5 | 0.0 | 2.0 | 0.00 | 0.00 | 0.00 | 81 | 1019.0 |
| 20260506060745 | 53 | 358 | 1.0 | 3.0 | 0.00 | 0.00 | 0.00 | 81 | 1018.9 |
| 20260506060243 | 54 | 35 | 3.0 | 4.0 | 0.00 | 0.00 | 0.00 | 79 | 1019.0 |
| 20260506051215 | 54 | 39 | 3.0 | 4.0 | 0.00 | 0.00 | 0.00 | 76 | 1018.6 |
| 20260506050713 | 55 | 27 | 3.0 | 5.0 | 0.00 | 0.00 | 0.00 | 76 | 1018.4 |
| 20260506050209 | 54 | 67 | 3.0 | 4.0 | 0.00 | 0.00 | 0.00 | 77 | 1018.4 |
| 20260506044701 | 54 | 30 | 3.0 | 5.0 | 0.00 | 0.00 | 0.00 | 78 | 1018.4 |
| 20260506044157 | 54 | 22 | 3.0 | 3.0 | 0.00 | 0.00 | 0.00 | 77 | 1018.1 |
| 20260506043654 | 54 | 28 | 2.0 | 4.0 | 0.00 | 0.00 | 0.00 | 77 | 1018.2 |
| 20260506043152 | 54 | 15 | 2.0 | 4.0 | 0.00 | 0.00 | 0.00 | 78 | 1017.8 |
| 20260506042652 | 54 | 22 | 3.0 | 4.0 | 0.00 | 0.00 | 0.00 | 79 | 1018.2 |
| 20260506042149 | 54 | 33 | 3.0 | 3.0 | 0.00 | 0.00 | 0.00 | 78 | 1018.1 |
| 20260506041652 | 54 | 37 | 2.0 | 3.0 | 0.00 | 0.00 | 0.00 | 77 | 1017.9 |
| 20260506041143 | 55 | 36 | 0.0 | 3.0 | 0.00 | 0.00 | 0.00 | 77 | 1017.9 |
| 20260506040641 | 55 | 40 | 1.0 | 3.0 | 0.00 | 0.00 | 0.00 | 76 | 1017.8 |
| 20260506040138 | 55 | 28 | 2.0 | 4.0 | 0.00 | 0.00 | 0.00 | 76 | 1017.9 |
| 20260506035635 | 55 | 40 | 2.0 | 3.0 | 0.00 | 0.00 | 0.00 | 76 | 1017.6 |
| 20260506035131 | 55 | 14 | 2.0 | 3.0 | 0.00 | 0.00 | 0.00 | 75 | 1017.6 |
| 20260506034629 | 56 | 43 | 2.0 | 3.0 | 0.00 | 0.00 | 0.00 | 74 | 1017.4 |
| 20260506034125 | 57 | 53 | 2.0 | 3.0 | 0.00 | 0.00 | 0.00 | 73 | 1017.4 |
| 20260506033623 | 57 | 21 | 2.0 | 3.0 | 0.00 | 0.00 | 0.00 | 73 | 1017.4 |
| 20260506033120 | 57 | 44 | 2.0 | 4.0 | 0.00 | 0.00 | 0.00 | 73 | 1017.4 |
| 20260506032617 | 57 | 55 | 1.0 | 4.0 | 0.00 | 0.00 | 0.00 | 74 | 1017.2 |
| 20260506032114 | 57 | 65 | 3.0 | 3.0 | 0.00 | 0.00 | 0.00 | 75 | 1017.3 |
| 20260506031611 | 57 | 52 | 0.0 | 3.0 | 0.00 | 0.00 | 0.00 | 75 | 1017.0 |
| 20260506031108 | 58 | 23 | 2.0 | 3.0 | 0.00 | 0.00 | 0.00 | 74 | 1016.9 |
| 20260506030607 | 58 | 13 | 2.0 | 3.0 | 0.00 | 0.00 | 0.00 | 74 | 1016.9 |
| 20260506030103 | 58 | 36 | 0.0 | 3.0 | 0.00 | 0.00 | 0.00 | 74 | 1016.8 |
| 20260506025600 | 59 | 36 | 2.0 | 4.0 | 0.00 | 0.00 | 0.00 | 73 | 1016.6 |
| 20260506025056 | 59 | 352 | 2.0 | 4.0 | 0.00 | 0.00 | 0.00 | 72 | 1016.7 |
| 20260506024554 | 60 | 70 | 2.0 | 3.0 | 0.00 | 0.00 | 0.00 | 71 | 1016.5 |
| 20260506024050 | 60 | 25 | 2.0 | 3.0 | 0.00 | 0.00 | 0.00 | 69 | 1016.5 |
| 20260506023546 | 60 | 84 | 2.0 | 4.0 | 0.00 | 0.00 | 0.00 | 69 | 1016.7 |
| 20260506023044 | 61 | 313 | 0.0 | 4.0 | 0.00 | 0.00 | 0.00 | 68 | 1016.4 |
| 20260506022541 | 61 | 23 | 0.0 | 5.0 | 0.00 | 0.00 | 0.00 | 68 | 1016.4 |
| 20260506022038 | 61 | 330 | 4.0 | 6.0 | 0.00 | 0.00 | 0.00 | 68 | 1016.3 |
| 20260506021536 | 61 | 284 | 1.0 | 6.0 | 0.00 | 0.00 | 0.00 | 67 | 1016.2 |
| 20260506021033 | 61 | 274 | 2.0 | 6.0 | 0.00 | 0.00 | 0.00 | 66 | 1016.3 |
| 20260506020530 | 62 | 286 | 3.0 | 11.0 | 0.00 | 0.00 | 0.00 | 65 | 1016.2 |
| 20260506020027 | 62 | 0 | 0.0 | 10.0 | 0.00 | 0.00 | 0.00 | 64 | 1016.0 |
| 20260506015525 | 63 | 333 | 2.0 | 9.0 | 0.00 | 0.00 | 0.00 | 63 | 1016.3 |
| 20260506015022 | 63 | 14 | 3.0 | 6.0 | 0.00 | 0.00 | 0.00 | 63 | 1016.1 |
| 20260506014519 | 63 | 274 | 4.0 | 5.0 | 0.00 | 0.00 | 0.00 | 64 | 1016.2 |
| 20260506014015 | 63 | 302 | 5.0 | 10.0 | 0.00 | 0.00 | 0.00 | 64 | 1016.0 |
| 20260506013513 | 64 | 340 | 2.0 | 8.0 | 0.00 | 0.00 | 0.00 | 62 | 1016.0 |
| 20260506013010 | 64 | 260 | 4.0 | 9.0 | 0.00 | 0.00 | 0.00 | 61 | 1016.0 |
| 20260506012506 | 63 | 311 | 4.0 | 15.0 | 0.00 | 0.00 | 0.00 | 61 | 1015.8 |
| 20260506012003 | 64 | 287 | 8.0 | 10.0 | 0.00 | 0.00 | 0.00 | 60 | 1015.9 |
| 20260506011500 | 65 | 276 | 1.0 | 9.0 | 0.00 | 0.00 | 0.00 | 57 | 1015.8 |
| 20260506010956 | 65 | 265 | 5.0 | 13.0 | 0.00 | 0.00 | 0.00 | 57 | 1015.7 |
| 20260506010456 | 65 | 92 | 3.0 | 5.0 | 0.00 | 0.00 | 0.00 | 54 | 1015.8 |
| 20260506005951 | 66 | 91 | 2.0 | 5.0 | 0.00 | 0.00 | 0.00 | 53 | 1015.9 |
| 20260506005449 | 66 | 147 | 2.0 | 3.0 | 0.00 | 0.00 | 0.00 | 53 | 1015.9 |
| 20260506004944 | 65 | 57 | 3.0 | 5.0 | 0.00 | 0.00 | 0.00 | 55 | 1015.8 |
| 20260506004443 | 64 | 357 | 1.0 | 5.0 | 0.00 | 0.00 | 0.00 | 55 | 1015.7 |
| 20260506003938 | 64 | 162 | 3.0 | 5.0 | 0.00 | 0.00 | 0.00 | 56 | 1015.8 |
| 20260506003435 | 63 | 86 | 0.0 | 3.0 | 0.00 | 0.00 | 0.00 | 57 | 1015.8 |
| 20260506002931 | 63 | 132 | 0.0 | 4.0 | 0.00 | 0.00 | 0.00 | 58 | 1015.7 |
| 20260506002427 | 63 | 149 | 5.0 | 7.0 | 0.00 | 0.00 | 0.00 | 57 | 1015.8 |
| 20260506001923 | 64 | 142 | 6.0 | 7.0 | 0.00 | 0.00 | 0.00 | 57 | 1015.7 |
| 20260506001420 | 64 | 140 | 3.0 | 6.0 | 0.00 | 0.00 | 0.00 | 56 | 1015.5 |